Time;durP1;ratioP1;P1;durP2;ratioP2;P2;SDS_P1;SDS_P2;PMS_P1;PMS_P2;Temp;Humidity;BMP_temperature;BMP_pressure;BME280_temperature;BME280_humidity;BME280_pressure;Samples;Min_cycle;Max_cycle;Signal;HPM_P1;HPM_P2
2023/10/02 00:02:40;;;;;;;19.83;9.15;;;;;;;;;;4999551;28;102255;-70
2023/10/02 00:05:05;;;;;;;23.85;9.35;;;;;;;;;;5002677;28;99382;-71
2023/10/02 00:07:36;;;;;;;17.00;8.57;;;;;;;;;;5003255;28;99991;-70
2023/10/02 00:10:03;;;;;;;18.83;8.77;;;;;;;;;;5003046;28;99963;-71
2023/10/02 00:12:32;;;;;;;23.73;9.63;;;;;;;;;;5006134;27;98302;-71
2023/10/02 00:14:58;;;;;;;16.17;9.35;;;;;;;;;;5001736;28;99153;-70
2023/10/02 00:17:25;;;;;;;16.40;9.27;;;;;;;;;;5003181;27;99069;-70
2023/10/02 00:19:57;;;;;;;14.10;8.40;;;;;;;;;;5002796;28;100122;-70
2023/10/02 00:22:43;;;;;;;15.85;9.70;;;;;;;;;;5002523;28;98998;-70
2023/10/02 00:25:12;;;;;;;13.52;8.50;;;;;;;;;;5003365;28;99969;-70
2023/10/02 00:27:39;;;;;;;14.63;9.00;;;;;;;;;;5005115;28;100022;-71
2023/10/02 00:30:07;;;;;;;21.25;9.23;;;;;;;;;;5005599;28;99502;-71
2023/10/02 00:32:34;;;;;;;17.15;9.45;;;;;;;;;;5007915;28;99264;-70
2023/10/02 00:35:02;;;;;;;17.65;9.00;;;;;;;;;;5006404;28;101481;-70
2023/10/02 00:37:51;;;;;;;20.65;9.65;;;;;;;;;;5005889;28;98904;-71
2023/10/02 00:40:22;;;;;;;20.37;9.50;;;;;;;;;;5004411;28;99839;-70
2023/10/02 00:42:55;;;;;;;17.67;9.15;;;;;;;;;;5005184;28;100075;-70
2023/10/02 00:45:23;;;;;;;20.17;8.35;;;;;;;;;;5004340;28;99333;-71
2023/10/02 00:47:50;;;;;;;12.90;8.88;;;;;;;;;;4998871;28;99542;-70
2023/10/02 00:50:18;;;;;;;19.65;9.70;;;;;;;;;;5009868;28;99151;-70
2023/10/02 00:52:44;;;;;;;22.13;9.05;;;;;;;;;;5005530;28;102017;-70
2023/10/02 00:55:12;;;;;;;20.35;9.60;;;;;;;;;;5009857;28;99679;-70
2023/10/02 00:57:39;;;;;;;20.27;10.02;;;;;;;;;;5005719;28;99114;-70
2023/10/02 01:00:16;;;;;;;15.73;8.38;;;;;;;;;;5006906;28;99227;-70
2023/10/02 01:02:45;;;;;;;15.32;8.68;;;;;;;;;;5004819;28;101087;-70
2023/10/02 01:05:16;;;;;;;19.48;9.35;;;;;;;;;;5007453;28;98834;-71
2023/10/02 01:07:43;;;;;;;20.88;9.77;;;;;;;;;;5008982;28;99588;-71
2023/10/02 01:10:17;;;;;;;13.85;8.38;;;;;;;;;;5006090;28;100082;-72
2023/10/02 01:12:49;;;;;;;19.45;8.07;;;;;;;;;;5006388;28;99410;-70
2023/10/02 01:15:19;;;;;;;13.50;8.32;;;;;;;;;;5004277;28;100418;-71
2023/10/02 01:17:49;;;;;;;18.85;9.60;;;;;;;;;;5009430;28;99376;-71
2023/10/02 01:20:32;;;;;;;22.58;9.77;;;;;;;;;;5006449;28;99159;-71
2023/10/02 01:23:16;;;;;;;18.38;9.93;;;;;;;;;;5005488;28;99420;-71
2023/10/02 01:25:46;;;;;;;17.27;8.40;;;;;;;;;;5006191;28;98577;-71
2023/10/02 01:28:20;;;;;;;15.63;8.90;;;;;;;;;;5038519;27;100740;-70
2023/10/02 01:30:47;;;;;;;16.92;8.13;;;;;;;;;;5005844;28;99358;-70
2023/10/02 01:33:14;;;;;;;20.08;8.48;;;;;;;;;;5002683;28;98778;-69
2023/10/02 01:35:51;;;;;;;17.52;9.13;;;;;;;;;;5002743;28;100355;-71
2023/10/02 01:38:18;;;;;;;18.20;8.43;;;;;;;;;;5004438;28;100297;-71
2023/10/02 01:40:49;;;;;;;14.82;8.23;;;;;;;;;;5007029;28;99050;-70
2023/10/02 01:43:16;;;;;;;16.13;8.68;;;;;;;;;;5001751;28;100379;-70
2023/10/02 01:45:43;;;;;;;19.60;9.82;;;;;;;;;;5000945;28;99128;-70
2023/10/02 01:48:13;;;;;;;17.45;9.27;;;;;;;;;;5004253;28;99501;-71
2023/10/02 01:50:42;;;;;;;19.25;9.27;;;;;;;;;;5004572;28;99389;-71
2023/10/02 01:53:28;;;;;;;21.85;8.20;;;;;;;;;;5006242;28;99286;-70
2023/10/02 01:56:05;;;;;;;13.70;8.45;;;;;;;;;;4997738;28;98628;-72
2023/10/02 01:58:32;;;;;;;21.95;9.35;;;;;;;;;;5033215;27;101796;-71
2023/10/02 02:01:00;;;;;;;15.85;8.80;;;;;;;;;;5015776;28;102914;-70
2023/10/02 02:03:28;;;;;;;23.77;9.30;;;;;;;;;;5003728;28;102853;-71
2023/10/02 02:05:55;;;;;;;16.63;9.80;;;;;;;;;;5001573;28;99794;-71
2023/10/02 02:08:21;;;;;;;18.60;9.27;;;;;;;;;;5001986;28;100068;-70
2023/10/02 02:10:52;;;;;;;15.40;8.95;;;;;;;;;;5004692;28;100412;-71
2023/10/02 02:13:19;;;;;;;16.05;9.05;;;;;;;;;;4998561;28;99727;-71
2023/10/02 02:15:51;;;;;;;14.45;8.93;;;;;;;;;;5001282;28;100646;-70
2023/10/02 02:18:20;;;;;;;16.65;9.80;;;;;;;;;;5001458;28;99150;-71
2023/10/02 02:20:59;;;;;;;18.67;9.38;;;;;;;;;;5002888;28;99826;-71
2023/10/02 02:23:27;;;;;;;21.33;9.98;;;;;;;;;;5004394;28;99337;-70
2023/10/02 02:25:53;;;;;;;15.93;9.30;;;;;;;;;;5002277;28;99337;-70
2023/10/02 02:28:21;;;;;;;23.20;9.85;;;;;;;;;;5001257;28;101095;-71
2023/10/02 02:30:47;;;;;;;14.95;8.63;;;;;;;;;;5001755;28;101997;-70
2023/10/02 02:33:15;;;;;;;25.83;9.50;;;;;;;;;;5005135;28;99370;-70
2023/10/02 02:35:44;;;;;;;17.95;9.88;;;;;;;;;;5002185;28;99383;-70
2023/10/02 02:38:16;;;;;;;16.58;9.40;;;;;;;;;;5002415;28;101280;-70
2023/10/02 02:40:42;;;;;;;16.73;9.48;;;;;;;;;;5002276;28;98969;-71
2023/10/02 02:43:19;;;;;;;22.13;10.52;;;;;;;;;;5002105;28;99543;-72
2023/10/02 02:45:45;;;;;;;16.88;9.25;;;;;;;;;;5006398;28;100187;-71
2023/10/02 02:48:16;;;;;;;21.48;10.48;;;;;;;;;;4998082;28;100773;-71
2023/10/02 02:50:43;;;;;;;18.33;10.23;;;;;;;;;;5002362;28;99934;-71
2023/10/02 02:53:17;;;;;;;20.83;11.00;;;;;;;;;;5001570;28;100562;-71
2023/10/02 02:55:44;;;;;;;18.60;9.82;;;;;;;;;;5004042;28;99808;-71
2023/10/02 02:58:11;;;;;;;21.75;9.60;;;;;;;;;;5002602;28;101679;-72
2023/10/02 03:00:39;;;;;;;16.95;9.48;;;;;;;;;;5004301;28;98805;-71
2023/10/02 03:03:32;;;;;;;14.40;9.57;;;;;;;;;;5003702;28;98911;-71
2023/10/02 03:05:58;;;;;;;16.80;9.82;;;;;;;;;;5002706;28;100402;-71
2023/10/02 03:08:37;;;;;;;16.60;8.80;;;;;;;;;;5002991;28;100764;-71
2023/10/02 03:11:08;;;;;;;17.00;9.93;;;;;;;;;;4999799;28;100914;-71
2023/10/02 03:13:35;;;;;;;19.75;9.20;;;;;;;;;;4996978;28;99076;-70
2023/10/02 03:16:16;;;;;;;16.65;9.75;;;;;;;;;;5002583;28;99929;-70
2023/10/02 03:18:48;;;;;;;17.38;9.60;;;;;;;;;;5003285;28;100632;-70
2023/10/02 03:21:24;;;;;;;27.40;9.85;;;;;;;;;;5004027;28;98948;-70
2023/10/02 03:23:53;;;;;;;20.25;10.15;;;;;;;;;;5005680;28;99934;-70
2023/10/02 03:26:56;;;;;;;19.95;10.55;;;;;;;;;;4996683;28;99458;-71
2023/10/02 03:29:21;;;;;;;23.33;10.07;;;;;;;;;;5001400;28;99362;-71
2023/10/02 03:31:51;;;;;;;17.63;10.10;;;;;;;;;;5008488;28;98545;-70
2023/10/02 03:34:29;;;;;;;20.25;11.40;;;;;;;;;;5004902;28;100067;-70
2023/10/02 03:37:00;;;;;;;23.45;10.15;;;;;;;;;;5003496;28;99266;-70
2023/10/02 03:42:19;;;;;;;17.02;9.57;;;;;;;;;;5001972;28;100454;-71
2023/10/02 03:44:45;;;;;;;18.42;9.55;;;;;;;;;;5001358;28;101947;-70
2023/10/02 03:47:14;;;;;;;20.98;10.20;;;;;;;;;;5001999;28;99387;-70
2023/10/02 03:49:42;;;;;;;21.95;9.50;;;;;;;;;;5003503;28;99632;-71
2023/10/02 03:52:09;;;;;;;19.40;9.85;;;;;;;;;;5003361;28;99217;-70
2023/10/02 03:54:36;;;;;;;22.67;10.23;;;;;;;;;;5004739;28;100903;-71
2023/10/02 03:57:02;;;;;;;18.60;9.30;;;;;;;;;;4998551;28;99907;-71
2023/10/02 03:59:31;;;;;;;20.02;9.63;;;;;;;;;;5002042;28;99807;-71
2023/10/02 04:04:46;;;;;;;26.20;10.60;;;;;;;;;;4999101;28;99809;-69
2023/10/02 04:07:13;;;;;;;19.33;10.05;;;;;;;;;;5004167;28;101011;-71
2023/10/02 04:09:39;;;;;;;13.88;8.32;;;;;;;;;;4998869;28;100086;-71
2023/10/02 04:12:06;;;;;;;19.20;9.13;;;;;;;;;;5001809;28;99918;-70
2023/10/02 04:14:33;;;;;;;20.23;10.13;;;;;;;;;;5005499;28;100284;-71
2023/10/02 04:17:10;;;;;;;25.77;10.30;;;;;;;;;;5003357;28;99129;-70
2023/10/02 04:19:40;;;;;;;19.02;9.55;;;;;;;;;;5002335;28;99959;-70
2023/10/02 04:22:19;;;;;;;20.15;10.25;;;;;;;;;;5005612;28;98960;-71
2023/10/02 04:24:58;;;;;;;20.85;10.18;;;;;;;;;;5005844;28;99543;-71
2023/10/02 04:28:00;;;;;;;22.02;10.07;;;;;;;;;;5002466;28;99373;-70
2023/10/02 04:32:49;;;;;;;20.10;9.85;;;;;;;;;;5002156;28;100166;-71
2023/10/02 04:38:07;;;;;;;24.88;10.68;;;;;;;;;;5008978;28;99019;-70
2023/10/02 04:40:49;;;;;;;22.65;9.68;;;;;;;;;;5003260;28;100336;-70
2023/10/02 04:43:19;;;;;;;22.05;9.98;;;;;;;;;;5001816;28;100176;-71
2023/10/02 04:45:47;;;;;;;16.27;9.70;;;;;;;;;;5003305;28;100082;-73
2023/10/02 04:48:14;;;;;;;22.60;10.65;;;;;;;;;;5002206;27;99393;-71
2023/10/02 04:50:45;;;;;;;22.27;9.98;;;;;;;;;;5007949;28;100705;-71
2023/10/02 04:55:42;;;;;;;19.30;10.07;;;;;;;;;;5007432;28;99401;-71
2023/10/02 04:58:14;;;;;;;19.90;10.40;;;;;;;;;;5003487;28;99412;-71
2023/10/02 05:01:23;;;;;;;17.45;9.20;;;;;;;;;;5008242;28;100907;-71
2023/10/02 05:03:29;;;;;;;24.25;11.05;;;;;;;;;;4993445;28;100922;-71
2023/10/02 05:05:58;;;;;;;18.38;10.77;;;;;;;;;;5002735;27;98930;-70
2023/10/02 05:08:40;;;;;;;21.08;11.10;;;;;;;;;;4996339;28;101158;-72
2023/10/02 05:11:08;;;;;;;20.30;10.87;;;;;;;;;;5002215;28;100061;-70
2023/10/02 05:13:59;;;;;;;19.83;10.15;;;;;;;;;;5001517;28;100125;-69
2023/10/02 05:16:29;;;;;;;20.60;9.52;;;;;;;;;;5001944;28;99349;-70
2023/10/02 05:18:57;;;;;;;24.45;10.50;;;;;;;;;;4997650;28;99018;-71
2023/10/02 05:21:36;;;;;;;19.48;8.85;;;;;;;;;;5005441;28;99735;-70
2023/10/02 05:24:03;;;;;;;21.45;9.40;;;;;;;;;;5009545;28;100993;-70
2023/10/02 05:26:32;;;;;;;28.23;10.23;;;;;;;;;;5005010;28;100674;-70
2023/10/02 05:28:59;;;;;;;21.80;9.77;;;;;;;;;;5003169;28;100675;-71
2023/10/02 05:31:27;;;;;;;21.23;9.80;;;;;;;;;;5004073;27;99310;-70
2023/10/02 05:33:57;;;;;;;21.70;10.35;;;;;;;;;;4998438;27;100237;-70
2023/10/02 05:36:24;;;;;;;27.92;11.30;;;;;;;;;;5000568;28;100206;-70
2023/10/02 05:39:28;;;;;;;21.40;10.32;;;;;;;;;;5005304;28;99162;-70
2023/10/02 05:42:05;;;;;;;30.40;10.82;;;;;;;;;;5000985;28;99267;-71
2023/10/02 05:44:34;;;;;;;15.02;8.73;;;;;;;;;;5000133;28;100288;-71
2023/10/02 05:47:07;;;;;;;20.77;9.82;;;;;;;;;;5006655;28;100430;-72
2023/10/02 05:49:47;;;;;;;24.85;10.27;;;;;;;;;;5000852;28;100976;-70
2023/10/02 05:52:18;;;;;;;17.98;9.55;;;;;;;;;;5004017;28;100537;-71
2023/10/02 05:54:53;;;;;;;17.33;8.88;;;;;;;;;;5003727;28;99863;-71
2023/10/02 05:57:20;;;;;;;16.92;9.40;;;;;;;;;;5009302;27;99400;-71
2023/10/02 05:59:48;;;;;;;20.33;9.60;;;;;;;;;;5004715;28;98719;-69
2023/10/02 06:02:19;;;;;;;23.63;10.73;;;;;;;;;;4995741;28;101330;-70
2023/10/02 06:04:52;;;;;;;22.60;10.73;;;;;;;;;;4997944;28;100146;-70
2023/10/02 06:10:08;;;;;;;26.70;11.35;;;;;;;;;;5011486;28;98637;-71
2023/10/02 06:12:42;;;;;;;18.13;9.85;;;;;;;;;;5003398;28;99285;-72
2023/10/02 06:15:43;;;;;;;20.73;10.73;;;;;;;;;;5004535;28;99735;-71
2023/10/02 06:17:58;;;;;;;27.08;10.55;;;;;;;;;;5001923;28;100280;-71
2023/10/02 06:20:25;;;;;;;21.00;8.93;;;;;;;;;;5001452;28;99064;-71
2023/10/02 06:23:03;;;;;;;28.65;10.60;;;;;;;;;;5005047;28;100003;-70
2023/10/02 06:25:30;;;;;;;18.63;10.30;;;;;;;;;;5003498;28;99200;-71
2023/10/02 06:28:19;;;;;;;24.17;10.73;;;;;;;;;;5004966;28;100043;-71
2023/10/02 06:30:43;;;;;;;19.10;8.23;;;;;;;;;;5002772;28;99418;-72
2023/10/02 06:33:10;;;;;;;19.27;10.15;;;;;;;;;;5005629;28;99056;-72
2023/10/02 06:35:44;;;;;;;26.63;12.10;;;;;;;;;;5005717;28;98562;-70
2023/10/02 06:38:17;;;;;;;18.65;9.90;;;;;;;;;;5003972;28;99239;-73
2023/10/02 06:40:55;;;;;;;20.02;10.52;;;;;;;;;;5005920;28;99346;-72
2023/10/02 06:43:28;;;;;;;17.50;9.50;;;;;;;;;;5004936;28;99866;-71
2023/10/02 06:46:06;;;;;;;20.20;10.48;;;;;;;;;;5005058;28;100176;-72
2023/10/02 06:48:37;;;;;;;17.55;9.90;;;;;;;;;;5005607;28;98944;-71
2023/10/02 06:51:04;;;;;;;18.60;9.52;;;;;;;;;;5005182;28;99108;-69
2023/10/02 06:53:31;;;;;;;24.10;9.73;;;;;;;;;;5007216;28;100126;-70
2023/10/02 06:56:07;;;;;;;22.83;10.25;;;;;;;;;;5005608;28;100483;-71
2023/10/02 06:58:48;;;;;;;24.70;10.80;;;;;;;;;;5005699;28;99443;-71
2023/10/02 07:01:18;;;;;;;23.93;10.53;;;;;;;;;;5003525;28;99503;-69
2023/10/02 07:03:51;;;;;;;21.98;10.93;;;;;;;;;;5004538;28;99457;-70
2023/10/02 07:06:19;;;;;;;21.02;10.52;;;;;;;;;;5002983;28;100054;-70
2023/10/02 07:09:09;;;;;;;18.13;10.45;;;;;;;;;;5004798;28;100231;-70
2023/10/02 07:11:39;;;;;;;27.55;10.35;;;;;;;;;;5003982;28;99449;-70
2023/10/02 07:14:06;;;;;;;15.40;9.48;;;;;;;;;;5003519;28;101628;-70
2023/10/02 07:16:33;;;;;;;16.23;9.25;;;;;;;;;;5006689;28;99914;-70
2023/10/02 07:19:01;;;;;;;22.27;10.93;;;;;;;;;;5004018;28;99322;-70
2023/10/02 07:21:30;;;;;;;14.63;9.52;;;;;;;;;;5002973;28;98993;-72
2023/10/02 07:23:58;;;;;;;22.15;9.45;;;;;;;;;;5003255;28;99925;-70
2023/10/02 07:29:09;;;;;;;16.00;9.65;;;;;;;;;;5003779;28;102017;-70
2023/10/02 07:31:36;;;;;;;22.75;10.48;;;;;;;;;;5003398;28;100235;-70
2023/10/02 07:34:03;;;;;;;18.15;10.50;;;;;;;;;;5004104;28;100816;-70
2023/10/02 07:36:33;;;;;;;26.13;10.32;;;;;;;;;;5002034;28;99907;-71
2023/10/02 07:39:22;;;;;;;22.45;11.05;;;;;;;;;;5000321;28;100102;-69
2023/10/02 07:41:59;;;;;;;18.77;10.48;;;;;;;;;;5002779;28;100163;-70
2023/10/02 07:44:36;;;;;;;18.48;9.93;;;;;;;;;;5004585;28;100161;-70
2023/10/02 07:47:10;;;;;;;16.95;10.18;;;;;;;;;;5004408;28;100121;-71
2023/10/02 07:49:40;;;;;;;21.27;10.50;;;;;;;;;;5005427;28;99155;-69
2023/10/02 07:52:07;;;;;;;14.85;9.43;;;;;;;;;;4996499;28;99244;-70
2023/10/02 07:54:44;;;;;;;21.05;11.13;;;;;;;;;;5004030;28;99437;-70
2023/10/02 07:57:13;;;;;;;16.90;9.95;;;;;;;;;;4995054;28;100091;-70
2023/10/02 07:59:43;;;;;;;19.13;10.50;;;;;;;;;;5004219;28;101103;-71
2023/10/02 08:02:23;;;;;;;18.63;9.75;;;;;;;;;;5007268;28;99292;-70
2023/10/02 08:04:51;;;;;;;19.30;9.65;;;;;;;;;;5003326;28;99159;-71
2023/10/02 08:07:19;;;;;;;22.05;12.00;;;;;;;;;;5002347;28;100564;-70
2023/10/02 08:10:05;;;;;;;16.58;9.93;;;;;;;;;;5002819;28;99973;-71
2023/10/02 08:12:34;;;;;;;18.52;10.07;;;;;;;;;;4997565;28;98974;-71
2023/10/02 08:15:03;;;;;;;27.73;10.02;;;;;;;;;;5004578;28;98737;-71
2023/10/02 08:20:15;;;;;;;23.90;10.73;;;;;;;;;;5003637;28;100405;-70
2023/10/02 08:22:45;;;;;;;19.00;9.90;;;;;;;;;;5000016;28;100908;-70
2023/10/02 08:25:13;;;;;;;20.52;11.15;;;;;;;;;;5005996;28;100182;-70
2023/10/02 08:27:45;;;;;;;29.23;10.38;;;;;;;;;;5000219;28;101019;-71
2023/10/02 08:30:27;;;;;;;26.90;11.52;;;;;;;;;;5003142;28;99014;-71
2023/10/02 08:33:11;;;;;;;20.42;10.13;;;;;;;;;;5001058;28;100059;-71
2023/10/02 08:35:58;;;;;;;21.45;10.15;;;;;;;;;;5003436;28;100478;-69
2023/10/02 08:38:26;;;;;;;19.15;9.93;;;;;;;;;;5002540;28;99813;-71
2023/10/02 08:41:00;;;;;;;21.50;9.77;;;;;;;;;;5004253;28;98942;-70
2023/10/02 08:43:27;;;;;;;19.40;10.25;;;;;;;;;;4999743;28;99333;-71
2023/10/02 08:45:54;;;;;;;18.23;9.23;;;;;;;;;;4994566;28;100262;-72
2023/10/02 08:48:22;;;;;;;17.42;9.93;;;;;;;;;;5007483;28;100527;-71
2023/10/02 08:50:49;;;;;;;24.15;9.95;;;;;;;;;;5006616;28;100690;-71
2023/10/02 08:53:22;;;;;;;18.98;10.15;;;;;;;;;;5005542;28;100040;-69
2023/10/02 08:56:00;;;;;;;19.25;9.80;;;;;;;;;;5006640;28;100652;-70
2023/10/02 08:58:30;;;;;;;21.48;9.02;;;;;;;;;;5006239;28;99424;-71
2023/10/02 09:03:48;;;;;;;20.85;9.70;;;;;;;;;;5006308;28;99773;-71
2023/10/02 09:06:31;;;;;;;24.77;10.63;;;;;;;;;;5006132;28;100464;-71
2023/10/02 09:09:17;;;;;;;21.35;10.88;;;;;;;;;;5009865;28;99230;-69
2023/10/02 09:11:44;;;;;;;21.25;11.10;;;;;;;;;;5006178;28;99044;-72
2023/10/02 09:16:47;;;;;;;26.35;11.35;;;;;;;;;;5006103;28;99371;-71
2023/10/02 09:19:31;;;;;;;22.42;10.57;;;;;;;;;;5006089;28;99859;-71
2023/10/02 09:22:07;;;;;;;23.85;11.70;;;;;;;;;;5005715;28;100036;-70
2023/10/02 09:24:37;;;;;;;26.95;12.73;;;;;;;;;;5005984;28;99345;-70
2023/10/02 09:27:23;;;;;;;20.95;10.68;;;;;;;;;;5005623;28;99206;-72
2023/10/02 09:30:15;;;;;;;23.63;11.35;;;;;;;;;;4999872;28;99861;-70
2023/10/02 09:32:47;;;;;;;18.80;10.40;;;;;;;;;;5009394;28;99436;-71
2023/10/02 09:35:22;;;;;;;26.23;12.15;;;;;;;;;;5005504;28;98961;-71
2023/10/02 09:38:16;;;;;;;25.13;12.40;;;;;;;;;;5005237;28;100575;-70
2023/10/02 09:43:33;;;;;;;24.38;10.63;;;;;;;;;;5005715;28;100524;-71
2023/10/02 09:46:05;;;;;;;22.75;10.98;;;;;;;;;;5000525;28;99554;-71
2023/10/02 09:51:21;;;;;;;13.80;8.70;;;;;;;;;;5005585;28;99681;-71
2023/10/02 09:54:04;;;;;;;20.63;9.60;;;;;;;;;;5005314;28;99621;-71
2023/10/02 09:56:51;;;;;;;22.40;9.90;;;;;;;;;;5008015;28;98983;-71
2023/10/02 09:59:22;;;;;;;17.90;9.23;;;;;;;;;;5005033;28;99224;-71
2023/10/02 10:02:47;;;;;;;23.02;9.90;;;;;;;;;;5006142;27;99151;-71
2023/10/02 10:07:46;;;;;;;12.05;8.52;;;;;;;;;;5003786;28;101163;-71
2023/10/02 10:10:31;;;;;;;16.38;8.98;;;;;;;;;;5004339;28;101487;-70
2023/10/02 10:13:09;;;;;;;20.70;9.25;;;;;;;;;;5005321;28;99527;-71
2023/10/02 10:15:37;;;;;;;19.70;9.90;;;;;;;;;;5005209;28;101271;-71
2023/10/02 10:18:12;;;;;;;17.67;9.10;;;;;;;;;;5005511;27;99494;-71
2023/10/02 10:20:39;;;;;;;26.58;8.98;;;;;;;;;;5008868;28;99464;-71
2023/10/02 10:23:34;;;;;;;18.20;10.32;;;;;;;;;;5005047;28;100385;-72
2023/10/02 10:26:08;;;;;;;16.38;8.13;;;;;;;;;;5006099;28;100111;-72
2023/10/02 10:28:50;;;;;;;14.88;8.30;;;;;;;;;;5001071;28;100214;-73
2023/10/02 10:31:29;;;;;;;17.65;8.85;;;;;;;;;;5003319;28;99051;-71
2023/10/02 10:33:56;;;;;;;18.40;8.27;;;;;;;;;;5004838;28;100163;-72
2023/10/02 10:36:36;;;;;;;21.10;9.57;;;;;;;;;;5004389;28;99211;-71
2023/10/02 10:41:57;;;;;;;18.90;8.63;;;;;;;;;;4997306;28;99297;-71
2023/10/02 10:44:32;;;;;;;23.60;9.57;;;;;;;;;;5007775;28;99547;-71
2023/10/02 10:47:03;;;;;;;20.88;9.60;;;;;;;;;;5005132;28;99452;-71
2023/10/02 10:50:11;;;;;;;17.45;9.57;;;;;;;;;;5004135;28;99322;-70
2023/10/02 10:52:39;;;;;;;16.58;7.95;;;;;;;;;;5003609;28;98920;-71
2023/10/02 10:55:32;;;;;;;15.13;7.28;;;;;;;;;;5008664;28;99158;-71
2023/10/02 10:57:58;;;;;;;;;;;;;;;;;;5005713;27;99544;-71
2023/10/02 11:00:25;;;;;;;22.98;8.82;;;;;;;;;;5002641;28;121214;-71
2023/10/02 11:03:01;;;;;;;21.05;9.38;;;;;;;;;;5003412;28;100028;-71
2023/10/02 11:05:33;;;;;;;17.27;8.43;;;;;;;;;;5003084;28;99524;-71
2023/10/02 11:08:37;;;;;;;17.88;8.15;;;;;;;;;;5008779;28;98812;-71
2023/10/02 11:11:11;;;;;;;15.75;8.25;;;;;;;;;;4973584;28;100256;-71
2023/10/02 11:13:53;;;;;;;16.63;8.30;;;;;;;;;;5004499;28;99216;-71
2023/10/02 11:16:21;;;;;;;;;;;;;;;;;;5006073;28;99232;-71
2023/10/02 11:22:18;;;;;;;15.60;6.63;;;;;;;;;;5004850;28;99761;-72
2023/10/02 11:24:44;;;;;;;15.63;7.05;;;;;;;;;;4985825;28;99276;-70
2023/10/02 11:27:15;;;;;;;14.68;6.50;;;;;;;;;;4983345;28;100159;-71
2023/10/02 11:29:42;;;;;;;13.38;6.45;;;;;;;;;;4988926;28;98939;-71
2023/10/02 11:32:24;;;;;;;8.88;5.90;;;;;;;;;;4993119;28;99604;-72
2023/10/02 11:34:58;;;;;;;13.10;5.93;;;;;;;;;;5004394;28;100419;-71
2023/10/02 11:37:26;;;;;;;12.93;6.55;;;;;;;;;;4988879;28;99593;-71
2023/10/02 11:39:54;;;;;;;10.70;5.93;;;;;;;;;;4986661;27;99589;-71
2023/10/02 11:42:25;;;;;;;9.35;5.38;;;;;;;;;;5003184;28;100028;-71
2023/10/02 11:44:53;;;;;;;10.15;5.88;;;;;;;;;;4996946;28;99046;-70
2023/10/02 11:47:19;;;;;;;12.68;5.82;;;;;;;;;;5003366;28;100922;-70
2023/10/02 11:49:46;;;;;;;14.90;5.85;;;;;;;;;;5005156;28;100059;-71
2023/10/02 11:52:13;;;;;;;10.65;6.63;;;;;;;;;;5011996;27;100024;-70
2023/10/02 11:54:39;;;;;;;9.30;5.68;;;;;;;;;;5003299;28;99932;-72
2023/10/02 11:57:09;;;;;;;17.15;5.50;;;;;;;;;;5003453;28;100053;-71
2023/10/02 11:59:50;;;;;;;10.05;6.10;;;;;;;;;;5003135;28;100380;-72
2023/10/02 12:02:17;;;;;;;12.18;6.03;;;;;;;;;;5002077;28;100340;-71
2023/10/02 12:04:44;;;;;;;11.73;6.68;;;;;;;;;;5002586;28;99973;-71
2023/10/02 12:07:11;;;;;;;11.90;6.05;;;;;;;;;;5002807;28;99868;-71
2023/10/02 12:09:38;;;;;;;13.27;6.20;;;;;;;;;;5003298;28;99957;-72
2023/10/02 12:12:05;;;;;;;12.50;6.25;;;;;;;;;;5003098;28;99910;-71
2023/10/02 12:14:31;;;;;;;10.35;5.95;;;;;;;;;;5006817;28;99261;-71
2023/10/02 12:16:58;;;;;;;14.13;6.43;;;;;;;;;;5001778;28;100187;-71
2023/10/02 12:19:26;;;;;;;9.93;5.80;;;;;;;;;;5007004;28;100336;-72
2023/10/02 12:21:52;;;;;;;15.02;6.13;;;;;;;;;;5003020;28;99324;-71
2023/10/02 12:24:34;;;;;;;11.30;5.53;;;;;;;;;;5006290;28;99503;-71
2023/10/02 12:27:01;;;;;;;13.57;6.30;;;;;;;;;;5006621;28;100321;-71
2023/10/02 12:29:29;;;;;;;11.93;5.95;;;;;;;;;;5006155;28;99105;-71
2023/10/02 12:32:00;;;;;;;15.68;6.45;;;;;;;;;;5005936;28;98620;-73
2023/10/02 12:34:27;;;;;;;14.43;5.93;;;;;;;;;;5007344;28;100049;-71
2023/10/02 12:36:54;;;;;;;14.63;6.28;;;;;;;;;;5009744;28;99970;-72
2023/10/02 12:39:22;;;;;;;16.13;6.55;;;;;;;;;;5006662;28;99292;-71
2023/10/02 12:41:49;;;;;;;14.30;7.20;;;;;;;;;;5006125;28;100030;-71
2023/10/02 12:44:16;;;;;;;12.68;6.20;;;;;;;;;;5005717;28;100696;-71
2023/10/02 12:46:43;;;;;;;13.68;7.40;;;;;;;;;;5006673;28;100119;-72
2023/10/02 12:49:14;;;;;;;16.17;7.63;;;;;;;;;;5007083;28;99050;-71
2023/10/02 12:51:41;;;;;;;14.25;7.15;;;;;;;;;;5005514;28;100213;-71
2023/10/02 12:54:09;;;;;;;11.05;6.30;;;;;;;;;;5006868;28;100445;-71
2023/10/02 12:56:37;;;;;;;15.60;6.70;;;;;;;;;;5006030;28;99959;-72
2023/10/02 12:59:06;;;;;;;17.25;7.18;;;;;;;;;;5009981;28;99969;-71
2023/10/02 13:01:33;;;;;;;13.80;7.47;;;;;;;;;;5010356;27;100343;-70
2023/10/02 13:04:00;;;;;;;14.57;6.47;;;;;;;;;;5014707;28;100384;-71
2023/10/02 13:06:32;;;;;;;12.73;6.65;;;;;;;;;;5004578;28;101415;-72
2023/10/02 13:09:08;;;;;;;13.88;6.78;;;;;;;;;;5006541;28;99974;-72
2023/10/02 13:11:39;;;;;;;17.73;7.85;;;;;;;;;;5006109;28;99264;-71
2023/10/02 13:14:07;;;;;;;11.45;6.88;;;;;;;;;;5006795;28;98780;-72
2023/10/02 13:16:38;;;;;;;15.27;7.30;;;;;;;;;;5005468;28;99911;-72
2023/10/02 13:19:12;;;;;;;13.00;7.50;;;;;;;;;;5008688;28;99279;-72
2023/10/02 13:21:40;;;;;;;18.75;8.32;;;;;;;;;;5006191;28;99777;-71
2023/10/02 13:24:10;;;;;;;11.98;7.20;;;;;;;;;;5007499;28;99022;-71
2023/10/02 13:26:38;;;;;;;14.50;7.22;;;;;;;;;;5011931;27;99591;-71
2023/10/02 13:29:05;;;;;;;10.65;6.72;;;;;;;;;;5006318;28;100192;-70
2023/10/02 13:31:32;;;;;;;12.43;7.82;;;;;;;;;;4998436;28;99532;-71
2023/10/02 13:33:58;;;;;;;14.02;7.22;;;;;;;;;;5016178;27;99408;-71
2023/10/02 13:36:25;;;;;;;13.68;7.05;;;;;;;;;;5006482;27;99074;-72
2023/10/02 13:38:54;;;;;;;16.85;7.38;;;;;;;;;;5006017;28;100004;-71
2023/10/02 13:41:21;;;;;;;12.82;6.90;;;;;;;;;;5005030;28;100236;-71
2023/10/02 13:43:48;;;;;;;12.45;7.57;;;;;;;;;;5004570;28;100448;-70
2023/10/02 13:46:16;;;;;;;9.95;7.00;;;;;;;;;;4995437;28;100366;-70
2023/10/02 13:48:43;;;;;;;14.60;8.20;;;;;;;;;;4997593;28;99611;-70
2023/10/02 13:51:11;;;;;;;15.68;8.07;;;;;;;;;;5000764;28;99636;-70
2023/10/02 13:53:37;;;;;;;17.48;7.88;;;;;;;;;;5001223;28;100042;-70
2023/10/02 13:56:09;;;;;;;20.80;7.93;;;;;;;;;;4996578;28;101902;-72
2023/10/02 13:58:37;;;;;;;15.18;7.78;;;;;;;;;;4996243;28;101206;-71
2023/10/02 14:01:05;;;;;;;14.32;8.18;;;;;;;;;;5003663;28;102315;-70
2023/10/02 14:03:32;;;;;;;19.83;9.23;;;;;;;;;;5008170;28;101525;-70
2023/10/02 14:06:00;;;;;;;16.63;9.02;;;;;;;;;;5005407;28;100748;-71
2023/10/02 14:08:27;;;;;;;23.10;9.07;;;;;;;;;;5004374;28;99987;-72
2023/10/02 14:10:54;;;;;;;16.63;8.30;;;;;;;;;;5009346;28;100138;-69
2023/10/02 14:13:20;;;;;;;15.38;8.02;;;;;;;;;;5005732;28;100003;-71
2023/10/02 14:15:47;;;;;;;17.90;9.07;;;;;;;;;;5004459;28;99352;-71
2023/10/02 14:18:14;;;;;;;21.02;9.77;;;;;;;;;;5008551;27;99572;-71
2023/10/02 14:20:40;;;;;;;20.42;9.77;;;;;;;;;;5005109;28;100839;-72
2023/10/02 14:23:07;;;;;;;16.98;9.07;;;;;;;;;;5005951;28;100017;-72
2023/10/02 14:25:38;;;;;;;18.50;9.90;;;;;;;;;;5008509;28;99804;-71
2023/10/02 14:28:08;;;;;;;28.17;9.77;;;;;;;;;;5005074;28;99941;-72
2023/10/02 14:30:34;;;;;;;16.80;8.80;;;;;;;;;;5003872;28;100669;-73
2023/10/02 14:33:01;;;;;;;18.45;10.88;;;;;;;;;;5004859;28;99623;-72
2023/10/02 14:35:28;;;;;;;18.35;9.10;;;;;;;;;;5004790;28;99968;-72
2023/10/02 14:38:14;;;;;;;17.33;8.35;;;;;;;;;;5004421;28;98995;-72
2023/10/02 14:40:41;;;;;;;19.15;9.95;;;;;;;;;;5005296;28;99313;-71
2023/10/02 14:43:11;;;;;;;16.90;9.68;;;;;;;;;;5004974;28;101354;-71
2023/10/02 14:45:38;;;;;;;14.20;8.32;;;;;;;;;;5003136;28;100038;-71
2023/10/02 14:48:05;;;;;;;22.95;8.65;;;;;;;;;;5007428;28;99298;-71
2023/10/02 14:50:37;;;;;;;15.30;7.97;;;;;;;;;;5003200;28;99198;-71
2023/10/02 14:53:08;;;;;;;17.63;9.00;;;;;;;;;;5005154;28;100119;-72
2023/10/02 14:55:48;;;;;;;19.02;9.18;;;;;;;;;;5004538;28;100082;-72
2023/10/02 14:58:16;;;;;;;16.17;8.25;;;;;;;;;;5007754;28;99931;-72
2023/10/02 15:00:42;;;;;;;16.92;8.93;;;;;;;;;;5004490;28;100343;-71
2023/10/02 15:03:09;;;;;;;16.17;9.02;;;;;;;;;;4997945;28;99676;-74
2023/10/02 15:05:39;;;;;;;16.60;8.50;;;;;;;;;;4997057;28;99802;-71
2023/10/02 15:08:10;;;;;;;20.23;8.38;;;;;;;;;;4992191;28;99327;-71
2023/10/02 15:10:37;;;;;;;19.83;9.18;;;;;;;;;;4996657;28;100642;-71
2023/10/02 15:13:04;;;;;;;18.80;9.10;;;;;;;;;;4994644;28;100075;-70
2023/10/02 15:15:30;;;;;;;24.85;9.40;;;;;;;;;;4991777;28;99959;-72
2023/10/02 15:18:01;;;;;;;22.38;8.85;;;;;;;;;;4994163;28;100026;-72
2023/10/02 15:20:28;;;;;;;20.30;9.05;;;;;;;;;;4994558;28;99050;-71
2023/10/02 15:22:55;;;;;;;15.45;9.07;;;;;;;;;;4994527;28;100535;-72
2023/10/02 15:25:22;;;;;;;24.90;10.90;;;;;;;;;;4993852;28;100438;-73
2023/10/02 15:27:50;;;;;;;20.27;9.18;;;;;;;;;;4995420;28;99178;-73
2023/10/02 15:30:17;;;;;;;17.10;8.48;;;;;;;;;;4993037;28;100044;-71